Larimer Hill, Indiana
Current Conditions -  °F | °C
As of 8:53 AM on Monday 26 Jan 2015 (Local Time) from KHUF Reporting Station
Overcast Overcast  
Wind Chill: 16°   Ceiling: 1600
Heat Index: 26°   Visibility: 10mi
Dew Point: 20°   Wind: 10mph
Humidity: 78%   Direction: 350°N
Pressure: 29.98"   Gusts: NA
Location:  39.5107°N, 87.4772°W
Report Text: KHUF 261353Z 35009KT 10SM OVC016 M03/M07 A2998 RMK AO2 SLP160 T10331067
Loading
Personal Weather Stations






























Interactive Weather Map New forecast layout! Learn more

10-Day Weather Forecast

Advertisements
Track Severe Weather on mobile